createdAt,value
2022-12-29T00:00:12.447Z,29.33
2022-12-29T00:02:42.672Z,29.33
2022-12-29T00:05:10.403Z,32.13
2022-12-29T00:07:37.506Z,27.40
2022-12-29T00:10:05.247Z,31.77
2022-12-29T00:12:52.266Z,32.20
2022-12-29T00:15:37.847Z,30.77
2022-12-29T00:18:05.131Z,28.67
2022-12-29T00:20:53.709Z,28.63
2022-12-29T00:23:39.663Z,28.07
2022-12-29T00:26:33.010Z,33.20
2022-12-29T00:29:18.770Z,33.80
2022-12-29T00:32:04.306Z,34.27
2022-12-29T00:34:49.639Z,37.80
2022-12-29T00:37:16.994Z,38.57
2022-12-29T00:40:03.111Z,38.50
2022-12-29T00:42:50.523Z,33.20
2022-12-29T00:45:17.422Z,32.13
2022-12-29T00:47:45.053Z,39.43
2022-12-29T00:50:11.950Z,34.07
2022-12-29T00:52:38.843Z,36.33
2022-12-29T00:55:06.135Z,31.60
2022-12-29T00:57:33.013Z,29.13
2022-12-29T00:59:59.948Z,32.03
2022-12-29T01:02:26.906Z,32.73
2022-12-29T01:04:53.832Z,34.47
2022-12-29T01:07:20.855Z,30.93
2022-12-29T01:10:06.201Z,30.23
2022-12-29T01:12:44.893Z,28.23
2022-12-29T01:15:14.948Z,24.63
2022-12-29T01:17:42.902Z,21.13
2022-12-29T01:20:10.570Z,22.90
2022-12-29T01:22:37.748Z,22.67
2022-12-29T01:25:05.486Z,21.50
2022-12-29T01:27:32.308Z,22.30
2022-12-29T01:29:59.586Z,25.13
2022-12-29T01:32:26.429Z,22.03
2022-12-29T01:34:53.263Z,25.07
2022-12-29T01:37:20.218Z,24.13
2022-12-29T01:39:47.143Z,23.23
2022-12-29T01:42:19.208Z,23.17
2022-12-29T01:45:01.100Z,22.30
2022-12-29T01:48:10.085Z,25.67
2022-12-29T01:50:42.470Z,22.80
2022-12-29T01:53:19.923Z,25.77
2022-12-29T01:55:59.689Z,26.03
2022-12-29T01:58:32.799Z,21.17
2022-12-29T02:01:00.764Z,28.87
2022-12-29T02:03:30.606Z,22.90
2022-12-29T02:06:10.065Z,26.60
2022-12-29T02:08:39.923Z,23.27
2022-12-29T02:11:08.173Z,23.47
2022-12-29T02:13:35.223Z,25.00
2022-12-29T02:16:09.337Z,24.33
2022-12-29T02:18:38.150Z,21.40
2022-12-29T02:21:23.209Z,21.70
2022-12-29T02:23:53.184Z,24.50
2022-12-29T02:26:44.653Z,22.40
2022-12-29T02:29:42.469Z,25.27
2022-12-29T02:32:14.951Z,20.63
2022-12-29T02:35:00.692Z,21.97
2022-12-29T02:37:42.818Z,24.17
2022-12-29T02:40:27.170Z,22.30
2022-12-29T02:43:05.232Z,22.27
2022-12-29T02:46:04.555Z,26.07
2022-12-29T02:48:46.567Z,24.87
2022-12-29T02:51:22.320Z,24.63
2022-12-29T02:54:08.203Z,25.93
2022-12-29T02:56:35.135Z,24.50
2022-12-29T02:59:02.786Z,24.23
2022-12-29T03:02:05.785Z,25.80
2022-12-29T03:04:45.296Z,24.23
2022-12-29T03:07:29.943Z,24.10
2022-12-29T03:10:29.793Z,22.20
2022-12-29T03:13:30.621Z,24.70
2022-12-29T03:16:17.149Z,26.83
2022-12-29T03:18:59.182Z,32.17
2022-12-29T03:21:51.394Z,28.47
2022-12-29T03:24:25.272Z,28.03
2022-12-29T03:26:56.689Z,27.57
2022-12-29T03:29:24.913Z,28.97
2022-12-29T03:31:54.683Z,27.30
2022-12-29T03:34:23.097Z,24.80
2022-12-29T03:36:55.326Z,30.43
2022-12-29T03:39:24.937Z,33.03
2022-12-29T03:41:58.332Z,40.70
2022-12-29T03:44:37.418Z,35.43
2022-12-29T03:47:05.397Z,39.30
2022-12-29T03:49:32.288Z,31.73
2022-12-29T03:51:59.207Z,31.47
2022-12-29T03:54:27.255Z,30.57
2022-12-29T03:56:54.152Z,30.70
2022-12-29T03:59:31.535Z,27.93
2022-12-29T04:01:58.511Z,25.47
2022-12-29T04:04:25.740Z,31.30
2022-12-29T04:06:52.678Z,31.27
2022-12-29T04:09:19.673Z,27.50
2022-12-29T04:11:49.264Z,28.70
2022-12-29T04:14:16.254Z,30.80
2022-12-29T04:16:45.427Z,30.90
2022-12-29T04:19:12.394Z,29.77
2022-12-29T04:21:39.258Z,32.57
2022-12-29T04:24:10.080Z,31.43
2022-12-29T04:26:41.578Z,30.33
2022-12-29T04:29:43.779Z,32.27
2022-12-29T04:32:31.359Z,31.43
2022-12-29T04:34:58.324Z,40.43
2022-12-29T04:37:25.271Z,32.83
2022-12-29T04:39:52.635Z,30.73
2022-12-29T04:42:19.532Z,30.23
2022-12-29T04:44:47.196Z,29.43
2022-12-29T04:47:21.174Z,27.47
2022-12-29T04:49:55.349Z,26.33
2022-12-29T04:52:34.569Z,26.50
2022-12-29T04:55:01.698Z,28.00
2022-12-29T04:57:30.524Z,31.03
2022-12-29T04:59:59.924Z,29.27
2022-12-29T05:02:27.327Z,33.10
2022-12-29T05:04:56.062Z,26.90
2022-12-29T05:07:23.608Z,25.40
2022-12-29T05:09:51.619Z,21.13
2022-12-29T05:12:19.038Z,21.33
2022-12-29T05:14:54.441Z,21.27
2022-12-29T05:18:17.731Z,22.07
2022-12-29T05:20:46.161Z,24.80
2022-12-29T05:23:13.708Z,25.83
2022-12-29T05:25:42.175Z,26.47
2022-12-29T05:28:16.475Z,27.90
2022-12-29T05:31:08.151Z,27.77
2022-12-29T05:33:35.444Z,23.33
2022-12-29T05:36:08.113Z,25.00
2022-12-29T05:38:36.764Z,27.17
2022-12-29T05:41:03.742Z,29.93
2022-12-29T05:43:42.732Z,29.00
2022-12-29T05:46:38.783Z,27.20
2022-12-29T05:49:08.803Z,29.00
2022-12-29T05:52:44.868Z,29.03
2022-12-29T05:55:12.962Z,30.70
2022-12-29T05:57:41.192Z,33.40
2022-12-29T06:00:12.560Z,34.33
2022-12-29T06:02:43.528Z,30.80
2022-12-29T06:05:10.707Z,28.37
2022-12-29T06:07:39.365Z,26.83
2022-12-29T06:10:07.865Z,29.90
2022-12-29T06:12:43.448Z,33.77
2022-12-29T06:15:11.170Z,43.27
2022-12-29T06:17:40.562Z,39.00
2022-12-29T06:20:09.056Z,37.67
2022-12-29T06:22:35.991Z,71.73
2022-12-29T06:25:05.378Z,50.17
2022-12-29T06:27:34.632Z,44.43
2022-12-29T06:30:02.299Z,48.27
2022-12-29T06:32:31.852Z,36.40
2022-12-29T06:35:06.864Z,32.70
2022-12-29T06:37:38.693Z,44.57
2022-12-29T06:40:06.331Z,38.43
2022-12-29T06:42:47.073Z,45.67
2022-12-29T06:45:34.373Z,41.97
2022-12-29T06:48:01.295Z,55.23
2022-12-29T06:50:28.528Z,45.30
2022-12-29T06:52:55.459Z,48.27
2022-12-29T06:55:23.460Z,44.80
2022-12-29T06:57:50.412Z,40.00
2022-12-29T07:00:22.470Z,38.80
2022-12-29T07:02:50.195Z,31.93
2022-12-29T07:05:17.365Z,35.57
2022-12-29T07:07:44.704Z,32.10
2022-12-29T07:10:11.616Z,30.63
2022-12-29T07:12:38.579Z,30.27
2022-12-29T07:15:05.771Z,32.63
2022-12-29T07:17:32.791Z,30.30
2022-12-29T07:19:59.732Z,29.90
2022-12-29T07:22:26.648Z,28.47
2022-12-29T07:24:53.576Z,27.53
2022-12-29T07:27:20.440Z,24.67
2022-12-29T07:29:47.364Z,29.77
2022-12-29T07:32:14.321Z,23.40
2022-12-29T07:34:41.245Z,25.67
2022-12-29T07:37:08.131Z,25.23
2022-12-29T07:39:35.121Z,24.83
2022-12-29T07:42:05.074Z,23.90
2022-12-29T07:44:39.394Z,23.90
2022-12-29T07:47:24.682Z,22.10
2022-12-29T07:49:51.912Z,21.63
2022-12-29T07:52:19.027Z,23.07
2022-12-29T07:54:46.306Z,20.60
2022-12-29T07:57:13.427Z,22.33
2022-12-29T07:59:40.520Z,24.10
2022-12-29T08:02:10.731Z,18.23
2022-12-29T08:04:37.652Z,18.23
2022-12-29T08:07:04.934Z,20.63
2022-12-29T08:09:31.806Z,18.97
2022-12-29T08:11:58.729Z,20.50
2022-12-29T08:14:25.692Z,18.90
2022-12-29T08:16:52.700Z,15.17
2022-12-29T08:19:19.700Z,20.27
2022-12-29T08:21:46.719Z,23.93
2022-12-29T08:24:13.685Z,26.70
2022-12-29T08:26:40.627Z,27.57
2022-12-29T08:29:07.487Z,32.50
2022-12-29T08:31:34.427Z,26.73
2022-12-29T08:34:02.567Z,23.93
2022-12-29T08:36:29.817Z,22.40
2022-12-29T08:38:56.778Z,19.03
2022-12-29T08:41:24.152Z,16.93
2022-12-29T08:43:53.711Z,21.43
2022-12-29T08:46:20.679Z,18.27
2022-12-29T08:48:47.788Z,22.80
2022-12-29T08:51:14.912Z,19.87
2022-12-29T08:53:41.815Z,18.67
2022-12-29T08:56:10.858Z,19.67
2022-12-29T08:58:45.956Z,17.03
2022-12-29T09:01:13.185Z,19.53
2022-12-29T09:04:14.134Z,22.77
2022-12-29T09:06:27.186Z,24.17
2022-12-29T09:08:56.490Z,24.53
2022-12-29T09:11:25.557Z,22.27
2022-12-29T09:13:53.477Z,20.10
2022-12-29T09:16:23.671Z,24.03
2022-12-29T09:18:51.678Z,21.40
2022-12-29T09:21:18.660Z,19.93
2022-12-29T09:23:45.717Z,16.33
2022-12-29T09:26:12.652Z,20.30
2022-12-29T09:28:39.668Z,21.63
2022-12-29T09:31:07.025Z,15.57
2022-12-29T09:33:36.434Z,15.50
2022-12-29T09:36:04.443Z,18.67
2022-12-29T09:38:31.911Z,16.60
2022-12-29T09:41:30.785Z,14.63
2022-12-29T09:44:09.826Z,18.50
2022-12-29T09:46:41.454Z,21.50
2022-12-29T09:49:47.270Z,18.83
2022-12-29T09:52:22.686Z,17.53
2022-12-29T09:55:20.410Z,16.27
2022-12-29T09:57:53.456Z,15.33
2022-12-29T10:00:35.026Z,16.47
2022-12-29T10:03:16.026Z,17.47
2022-12-29T10:05:45.944Z,15.00
2022-12-29T10:08:27.945Z,14.77
2022-12-29T10:17:20.457Z,19.57
2022-12-29T10:19:59.102Z,13.30
2022-12-29T10:22:37.926Z,12.90
2022-12-29T10:25:16.084Z,13.83
2022-12-29T10:27:49.888Z,17.60
2022-12-29T10:30:18.010Z,15.27
2022-12-29T10:33:03.104Z,15.17
2022-12-29T10:35:41.675Z,16.57
2022-12-29T10:38:11.537Z,19.80
2022-12-29T10:40:44.856Z,15.33
2022-12-29T10:43:26.674Z,13.03
2022-12-29T10:45:58.522Z,10.83
2022-12-29T10:48:33.000Z,10.97
2022-12-29T10:51:04.810Z,15.33
2022-12-29T10:57:46.851Z,12.90
2022-12-29T11:00:23.493Z,11.17
2022-12-29T11:03:11.364Z,17.37
2022-12-29T11:05:57.147Z,17.30
2022-12-29T11:08:28.942Z,18.37
2022-12-29T11:11:04.549Z,14.57
2022-12-29T11:13:38.973Z,15.57
2022-12-29T11:16:06.840Z,15.77
2022-12-29T11:18:41.006Z,11.70
2022-12-29T11:21:28.722Z,13.20
2022-12-29T11:24:04.432Z,13.30
2022-12-29T11:26:34.803Z,13.40
2022-12-29T11:29:17.417Z,15.27
2022-12-29T11:31:46.701Z,11.40
2022-12-29T11:34:26.555Z,13.33
2022-12-29T11:37:04.490Z,17.37
2022-12-29T11:39:40.417Z,16.07
2022-12-29T11:42:14.800Z,17.30
2022-12-29T11:44:46.072Z,12.57
2022-12-29T11:47:26.585Z,11.60
2022-12-29T11:49:56.702Z,13.50
2022-12-29T11:52:34.118Z,10.83
2022-12-29T11:55:02.677Z,9.27
2022-12-29T11:57:32.399Z,11.07
2022-12-29T12:00:02.371Z,13.47
2022-12-29T12:02:45.583Z,17.03
2022-12-29T12:05:28.199Z,12.73
2022-12-29T12:08:21.572Z,10.67
2022-12-29T12:10:59.885Z,14.43
2022-12-29T12:13:33.209Z,11.37
2022-12-29T12:16:13.585Z,16.20
2022-12-29T12:18:43.614Z,14.63
2022-12-29T12:21:29.214Z,10.70
2022-12-29T12:24:06.973Z,12.73
2022-12-29T12:27:00.467Z,15.90
2022-12-29T12:29:39.562Z,14.53
2022-12-29T12:32:21.747Z,14.17
2022-12-29T12:34:50.079Z,8.80
2022-12-29T12:37:25.109Z,10.70
2022-12-29T12:40:16.705Z,11.50
2022-12-29T12:42:49.238Z,9.17
2022-12-29T12:45:22.434Z,10.53
2022-12-29T12:48:07.752Z,12.80
2022-12-29T12:50:50.501Z,11.67
2022-12-29T12:53:46.822Z,16.93
2022-12-29T12:56:13.914Z,12.90
2022-12-29T12:58:43.811Z,9.97
2022-12-29T13:01:30.487Z,15.17
2022-12-29T13:04:23.685Z,9.80
2022-12-29T13:06:59.415Z,11.63
2022-12-29T13:09:42.147Z,14.40
2022-12-29T13:12:30.442Z,13.93
2022-12-29T13:15:17.965Z,15.53
2022-12-29T13:18:12.650Z,10.77
2022-12-29T13:21:07.728Z,10.43
2022-12-29T13:23:48.915Z,11.57
2022-12-29T13:26:23.056Z,13.10
2022-12-29T13:28:56.362Z,10.13
2022-12-29T13:31:39.316Z,8.80
2022-12-29T13:34:30.272Z,12.43
2022-12-29T13:37:05.235Z,10.80
2022-12-29T13:39:38.280Z,10.83
2022-12-29T13:42:06.463Z,11.33
2022-12-29T13:45:03.921Z,11.83
2022-12-29T13:48:03.571Z,8.83
2022-12-29T13:50:36.256Z,11.60
2022-12-29T13:53:15.154Z,12.47
2022-12-29T13:55:46.943Z,10.33
2022-12-29T13:58:47.663Z,14.50
2022-12-29T14:01:28.221Z,11.60
2022-12-29T14:04:00.981Z,20.47
2022-12-29T14:06:36.955Z,16.03
2022-12-29T14:09:06.730Z,13.50
2022-12-29T14:11:39.079Z,17.33
2022-12-29T14:14:41.558Z,17.53
2022-12-29T14:17:15.142Z,15.20
2022-12-29T14:19:46.487Z,18.83
2022-12-29T14:22:13.723Z,20.43
2022-12-29T14:24:42.359Z,24.23
2022-12-29T14:27:12.035Z,17.67
2022-12-29T14:29:41.659Z,15.27
2022-12-29T14:32:26.967Z,13.90
2022-12-29T14:34:58.595Z,13.27
2022-12-29T14:37:27.547Z,16.50
2022-12-29T14:40:07.825Z,15.83
2022-12-29T14:42:34.875Z,15.83
2022-12-29T14:45:05.204Z,22.70
2022-12-29T14:47:32.151Z,29.30
2022-12-29T14:50:08.677Z,28.97
2022-12-29T14:53:02.953Z,35.30
2022-12-29T14:55:42.058Z,38.03
2022-12-29T14:58:32.227Z,32.73
2022-12-29T15:01:00.743Z,28.40
2022-12-29T15:03:44.956Z,28.57
2022-12-29T15:06:19.891Z,24.40
2022-12-29T15:09:09.785Z,26.80
2022-12-29T15:11:36.683Z,25.20
2022-12-29T15:14:04.176Z,24.77
2022-12-29T15:16:34.446Z,26.87
2022-12-29T15:19:02.624Z,25.60
2022-12-29T15:21:37.566Z,22.93
2022-12-29T15:24:05.541Z,25.67
2022-12-29T15:26:41.431Z,22.93
2022-12-29T15:29:40.916Z,20.07
2022-12-29T15:32:16.781Z,20.87
2022-12-29T15:34:49.382Z,19.47
2022-12-29T15:37:23.649Z,24.87
2022-12-29T15:39:51.268Z,20.63
2022-12-29T15:42:33.358Z,23.87
2022-12-29T15:45:10.653Z,22.17
2022-12-29T15:47:39.668Z,26.17
2022-12-29T15:50:34.284Z,22.27
2022-12-29T15:53:06.067Z,22.93
2022-12-29T15:55:39.274Z,24.27
2022-12-29T15:58:28.330Z,25.93
2022-12-29T16:00:58.637Z,29.40
2022-12-29T16:03:28.724Z,30.40
2022-12-29T16:06:09.805Z,28.73
2022-12-29T16:08:41.545Z,26.63
2022-12-29T16:11:31.648Z,30.47
2022-12-29T16:13:59.190Z,26.80
2022-12-29T16:16:30.506Z,29.33
2022-12-29T16:18:58.529Z,32.90
2022-12-29T16:21:35.849Z,31.10
2022-12-29T16:24:12.916Z,31.97
2022-12-29T16:26:40.475Z,41.20
2022-12-29T16:29:09.328Z,41.13
2022-12-29T16:31:49.288Z,47.47
2022-12-29T16:34:26.563Z,50.73
2022-12-29T16:37:00.117Z,59.00
2022-12-29T16:39:40.618Z,46.60
2022-12-29T16:42:45.638Z,43.33
2022-12-29T16:45:24.790Z,50.47
2022-12-29T16:48:06.691Z,59.40
2022-12-29T16:50:39.484Z,58.67
2022-12-29T16:53:08.790Z,60.33
2022-12-29T16:55:35.711Z,50.80
2022-12-29T16:58:03.006Z,49.33
2022-12-29T17:00:36.708Z,52.77
2022-12-29T17:03:04.731Z,58.33
2022-12-29T17:05:31.863Z,48.30
2022-12-29T17:08:01.931Z,49.93
2022-12-29T17:10:49.504Z,47.73
2022-12-29T17:13:16.356Z,39.67
2022-12-29T17:15:43.277Z,40.17
2022-12-29T17:18:14.134Z,39.90
2022-12-29T17:20:41.279Z,40.87
2022-12-29T17:23:19.873Z,37.27
2022-12-29T17:25:49.907Z,40.87
2022-12-29T17:28:23.534Z,34.47
2022-12-29T17:30:53.081Z,26.60
2022-12-29T17:33:21.355Z,35.60
2022-12-29T17:35:54.891Z,30.83
2022-12-29T17:38:24.956Z,32.80
2022-12-29T17:40:52.214Z,31.60
2022-12-29T17:43:20.193Z,34.80
2022-12-29T17:45:54.543Z,25.17
2022-12-29T17:48:22.178Z,30.60
2022-12-29T17:50:51.977Z,29.57
2022-12-29T17:53:24.907Z,33.10
2022-12-29T17:55:52.236Z,31.63
2022-12-29T17:58:24.741Z,37.37
2022-12-29T18:00:53.543Z,36.63
2022-12-29T18:03:27.729Z,45.80
2022-12-29T18:05:55.297Z,43.07
2022-12-29T18:08:22.266Z,41.20
2022-12-29T18:10:51.297Z,36.80
2022-12-29T18:13:25.901Z,35.27
2022-12-29T18:15:55.914Z,34.83
2022-12-29T18:18:25.192Z,38.73
2022-12-29T18:20:54.753Z,46.63
2022-12-29T18:23:32.422Z,56.70
2022-12-29T18:26:05.966Z,67.17
2022-12-29T18:28:32.942Z,82.90
2022-12-29T18:31:01.515Z,78.13
2022-12-29T18:33:29.747Z,52.73
2022-12-29T18:36:05.074Z,48.43
2022-12-29T18:41:57.181Z,48.23
2022-12-29T18:44:24.729Z,51.27
2022-12-29T18:46:52.124Z,40.37
2022-12-29T18:49:19.018Z,35.07
2022-12-29T18:51:46.089Z,28.07
2022-12-29T18:54:39.120Z,29.90
2022-12-29T18:57:05.986Z,20.23
2022-12-29T18:59:32.849Z,28.90
2022-12-29T19:01:59.786Z,28.23
2022-12-29T19:04:31.709Z,32.77
2022-12-29T19:07:01.779Z,38.97
2022-12-29T19:09:28.688Z,36.90
2022-12-29T19:11:55.571Z,35.63
2022-12-29T19:14:30.566Z,40.73
2022-12-29T19:17:13.290Z,37.97
2022-12-29T19:19:43.470Z,40.70
2022-12-29T19:22:10.828Z,37.00
2022-12-29T19:24:37.719Z,35.27
2022-12-29T19:27:05.158Z,29.87
2022-12-29T19:29:32.016Z,28.50
2022-12-29T19:31:59.071Z,30.00
2022-12-29T19:34:26.184Z,31.30
2022-12-29T19:36:53.330Z,31.77
2022-12-29T19:39:21.001Z,36.57
2022-12-29T19:41:48.009Z,42.17
2022-12-29T19:44:32.213Z,38.80
2022-12-29T19:46:59.243Z,42.57
2022-12-29T19:49:26.196Z,33.77
2022-12-29T19:51:54.055Z,32.27
2022-12-29T19:54:20.997Z,32.97
2022-12-29T19:56:47.871Z,32.00
2022-12-29T19:59:14.778Z,36.77
2022-12-29T20:01:41.945Z,32.20
2022-12-29T20:04:08.957Z,33.63
2022-12-29T20:06:35.832Z,31.13
2022-12-29T20:09:03.426Z,32.47
2022-12-29T20:11:30.315Z,31.33
2022-12-29T20:13:57.260Z,31.00
2022-12-29T20:16:25.125Z,31.60
2022-12-29T20:18:54.429Z,32.80
2022-12-29T20:21:24.658Z,34.70
2022-12-29T20:23:53.115Z,32.47
2022-12-29T20:26:28.853Z,32.53
2022-12-29T20:28:58.158Z,32.67
2022-12-29T20:31:31.529Z,34.63
2022-12-29T20:33:59.042Z,36.53
2022-12-29T20:36:29.238Z,34.30
2022-12-29T20:38:57.187Z,33.77
2022-12-29T20:41:24.823Z,32.70
2022-12-29T20:43:53.444Z,32.40
2022-12-29T20:46:23.219Z,34.27
2022-12-29T20:48:52.732Z,34.80
2022-12-29T20:51:21.143Z,37.93
2022-12-29T20:53:48.390Z,37.40
2022-12-29T20:56:19.512Z,37.10
2022-12-29T20:59:17.564Z,33.43
2022-12-29T21:01:34.773Z,45.37
2022-12-29T21:04:01.770Z,48.13
2022-12-29T21:06:28.791Z,40.77
2022-12-29T21:08:55.734Z,43.57
2022-12-29T21:11:23.207Z,33.80
2022-12-29T21:13:50.323Z,42.17
2022-12-29T21:16:21.223Z,34.13
2022-12-29T21:18:51.466Z,34.83
2022-12-29T21:21:21.292Z,37.80
2022-12-29T21:23:50.888Z,31.80
2022-12-29T21:26:20.338Z,32.00
2022-12-29T21:28:47.545Z,29.83
2022-12-29T21:31:25.526Z,34.10
2022-12-29T21:33:54.219Z,37.43
2022-12-29T21:36:21.511Z,36.00
2022-12-29T21:38:48.528Z,30.90
2022-12-29T21:41:17.089Z,36.97
2022-12-29T21:44:04.675Z,31.00
2022-12-29T21:46:35.578Z,32.10
2022-12-29T21:49:03.426Z,31.37
2022-12-29T21:51:49.388Z,36.97
2022-12-29T21:54:43.021Z,36.27
2022-12-29T21:57:15.452Z,34.30
2022-12-29T22:00:04.948Z,35.90
2022-12-29T22:02:54.973Z,32.90
2022-12-29T22:05:40.455Z,34.30
2022-12-29T22:08:26.137Z,33.90
2022-12-29T22:11:11.817Z,34.30
2022-12-29T22:13:39.574Z,38.00
2022-12-29T22:16:09.092Z,36.90
2022-12-29T22:18:36.756Z,36.50
2022-12-29T22:21:08.263Z,31.70
2022-12-29T22:23:37.756Z,35.60
2022-12-29T22:26:06.424Z,34.80
2022-12-29T22:28:38.998Z,36.27
2022-12-29T22:31:29.150Z,38.10
2022-12-29T22:34:01.542Z,41.93
2022-12-29T22:36:29.288Z,39.40
2022-12-29T22:38:56.190Z,42.60
2022-12-29T22:41:23.705Z,39.30
2022-12-29T22:43:50.771Z,36.43
2022-12-29T22:46:17.765Z,39.03
2022-12-29T22:48:44.779Z,40.13
2022-12-29T22:51:11.697Z,37.20
2022-12-29T22:53:39.565Z,40.17
2022-12-29T22:56:11.295Z,36.80
2022-12-29T22:58:47.526Z,39.33
2022-12-29T23:01:17.517Z,38.70
2022-12-29T23:03:45.369Z,42.20
2022-12-29T23:09:32.945Z,44.53
2022-12-29T23:11:59.752Z,40.00
2022-12-29T23:14:26.623Z,44.20
2022-12-29T23:16:54.129Z,45.90
2022-12-29T23:19:21.094Z,47.40
2022-12-29T23:21:47.982Z,43.03
2022-12-29T23:24:15.154Z,45.70
2022-12-29T23:26:44.639Z,41.33
2022-12-29T23:29:15.309Z,40.37
2022-12-29T23:31:42.926Z,37.00
2022-12-29T23:34:11.470Z,40.60
2022-12-29T23:36:38.555Z,44.27
2022-12-29T23:39:06.078Z,41.37
2022-12-29T23:41:32.959Z,42.27
2022-12-29T23:43:59.839Z,41.60
2022-12-29T23:46:29.565Z,38.53
2022-12-29T23:48:56.925Z,41.00
2022-12-29T23:51:24.238Z,44.20
2022-12-29T23:53:51.108Z,43.37
2022-12-29T23:56:20.002Z,46.70
2022-12-29T23:58:47.362Z,40.17
